sensor_id;sensor_type;location;lat;lon;timestamp;P1;durP1;ratioP1;P2;durP2;ratioP2
20441;SDS011;10380;52.102;20.614;2022-10-31T00:01:17;40.57;;;25.33;;
20441;SDS011;10380;52.102;20.614;2022-10-31T00:03:49;39.10;;;25.33;;
20441;SDS011;10380;52.102;20.614;2022-10-31T00:06:16;35.67;;;23.87;;
20441;SDS011;10380;52.102;20.614;2022-10-31T00:08:47;33.60;;;24.37;;
20441;SDS011;10380;52.102;20.614;2022-10-31T00:11:21;38.20;;;24.90;;
20441;SDS011;10380;52.102;20.614;2022-10-31T00:13:49;34.63;;;23.23;;
20441;SDS011;10380;52.102;20.614;2022-10-31T00:16:20;33.53;;;23.23;;
20441;SDS011;10380;52.102;20.614;2022-10-31T00:18:48;34.97;;;23.47;;
20441;SDS011;10380;52.102;20.614;2022-10-31T00:21:20;38.13;;;25.10;;
20441;SDS011;10380;52.102;20.614;2022-10-31T00:23:47;34.77;;;24.03;;
20441;SDS011;10380;52.102;20.614;2022-10-31T00:26:14;39.47;;;25.57;;
20441;SDS011;10380;52.102;20.614;2022-10-31T00:28:41;42.70;;;28.47;;
20441;SDS011;10380;52.102;20.614;2022-10-31T00:31:09;35.37;;;24.03;;
20441;SDS011;10380;52.102;20.614;2022-10-31T00:33:37;42.50;;;24.00;;
20441;SDS011;10380;52.102;20.614;2022-10-31T00:36:05;36.13;;;24.80;;
20441;SDS011;10380;52.102;20.614;2022-10-31T00:38:33;45.07;;;26.93;;
20441;SDS011;10380;52.102;20.614;2022-10-31T00:41:00;41.57;;;26.50;;
20441;SDS011;10380;52.102;20.614;2022-10-31T00:43:27;42.17;;;27.50;;
20441;SDS011;10380;52.102;20.614;2022-10-31T00:45:53;42.97;;;28.07;;
20441;SDS011;10380;52.102;20.614;2022-10-31T00:48:20;48.33;;;29.30;;
20441;SDS011;10380;52.102;20.614;2022-10-31T00:50:47;48.57;;;29.40;;
20441;SDS011;10380;52.102;20.614;2022-10-31T00:53:14;43.33;;;24.60;;
20441;SDS011;10380;52.102;20.614;2022-10-31T00:55:40;39.73;;;23.83;;
20441;SDS011;10380;52.102;20.614;2022-10-31T00:58:07;41.73;;;25.07;;
20441;SDS011;10380;52.102;20.614;2022-10-31T01:00:34;34.13;;;22.93;;
20441;SDS011;10380;52.102;20.614;2022-10-31T01:03:01;34.43;;;23.37;;
20441;SDS011;10380;52.102;20.614;2022-10-31T01:05:28;34.83;;;23.33;;
20441;SDS011;10380;52.102;20.614;2022-10-31T01:07:56;36.40;;;22.87;;
20441;SDS011;10380;52.102;20.614;2022-10-31T01:10:23;38.17;;;25.43;;
20441;SDS011;10380;52.102;20.614;2022-10-31T01:12:52;37.20;;;23.10;;
20441;SDS011;10380;52.102;20.614;2022-10-31T01:15:21;35.10;;;24.03;;
20441;SDS011;10380;52.102;20.614;2022-10-31T01:17:48;37.13;;;23.47;;
20441;SDS011;10380;52.102;20.614;2022-10-31T01:20:17;38.77;;;23.73;;
20441;SDS011;10380;52.102;20.614;2022-10-31T01:22:44;33.87;;;21.70;;
20441;SDS011;10380;52.102;20.614;2022-10-31T01:25:11;32.53;;;20.33;;
20441;SDS011;10380;52.102;20.614;2022-10-31T01:27:38;33.87;;;21.37;;
20441;SDS011;10380;52.102;20.614;2022-10-31T01:30:05;33.43;;;22.63;;
20441;SDS011;10380;52.102;20.614;2022-10-31T01:32:32;34.10;;;21.50;;
20441;SDS011;10380;52.102;20.614;2022-10-31T01:34:59;31.70;;;19.97;;
20441;SDS011;10380;52.102;20.614;2022-10-31T01:37:26;28.73;;;19.83;;
20441;SDS011;10380;52.102;20.614;2022-10-31T01:39:53;30.97;;;21.07;;
20441;SDS011;10380;52.102;20.614;2022-10-31T01:42:21;27.87;;;19.77;;
20441;SDS011;10380;52.102;20.614;2022-10-31T01:44:56;28.30;;;19.73;;
20441;SDS011;10380;52.102;20.614;2022-10-31T01:47:29;29.13;;;19.50;;
20441;SDS011;10380;52.102;20.614;2022-10-31T01:50:00;35.37;;;20.90;;
20441;SDS011;10380;52.102;20.614;2022-10-31T01:52:43;37.90;;;22.87;;
20441;SDS011;10380;52.102;20.614;2022-10-31T01:55:34;33.23;;;21.37;;
20441;SDS011;10380;52.102;20.614;2022-10-31T01:58:04;40.47;;;22.10;;
20441;SDS011;10380;52.102;20.614;2022-10-31T02:00:35;35.30;;;21.83;;
20441;SDS011;10380;52.102;20.614;2022-10-31T02:03:03;30.30;;;20.17;;
20441;SDS011;10380;52.102;20.614;2022-10-31T02:05:30;31.73;;;21.20;;
20441;SDS011;10380;52.102;20.614;2022-10-31T02:10:46;32.67;;;21.10;;
20441;SDS011;10380;52.102;20.614;2022-10-31T02:13:13;30.70;;;19.67;;
20441;SDS011;10380;52.102;20.614;2022-10-31T02:15:40;28.90;;;19.53;;
20441;SDS011;10380;52.102;20.614;2022-10-31T02:18:10;26.70;;;17.33;;
20441;SDS011;10380;52.102;20.614;2022-10-31T02:21:00;30.03;;;19.47;;
20441;SDS011;10380;52.102;20.614;2022-10-31T02:26:31;25.70;;;18.50;;
20441;SDS011;10380;52.102;20.614;2022-10-31T02:40:39;27.87;;;18.93;;
20441;SDS011;10380;52.102;20.614;2022-10-31T02:43:17;30.87;;;19.20;;
20441;SDS011;10380;52.102;20.614;2022-10-31T02:46:14;32.23;;;19.80;;
20441;SDS011;10380;52.102;20.614;2022-10-31T02:48:42;32.33;;;20.67;;
20441;SDS011;10380;52.102;20.614;2022-10-31T02:51:11;31.37;;;19.90;;
20441;SDS011;10380;52.102;20.614;2022-10-31T02:53:39;22.83;;;17.20;;
20441;SDS011;10380;52.102;20.614;2022-10-31T02:58:38;23.90;;;16.87;;
20441;SDS011;10380;52.102;20.614;2022-10-31T03:04:08;23.03;;;16.43;;
20441;SDS011;10380;52.102;20.614;2022-10-31T03:16:04;20.60;;;14.43;;
20441;SDS011;10380;52.102;20.614;2022-10-31T03:18:47;22.17;;;15.53;;
20441;SDS011;10380;52.102;20.614;2022-10-31T03:21:20;21.20;;;15.20;;
20441;SDS011;10380;52.102;20.614;2022-10-31T03:23:52;25.20;;;17.27;;
20441;SDS011;10380;52.102;20.614;2022-10-31T03:26:22;20.30;;;15.77;;
20441;SDS011;10380;52.102;20.614;2022-10-31T03:28:59;25.03;;;16.13;;
20441;SDS011;10380;52.102;20.614;2022-10-31T03:31:29;20.97;;;15.47;;
20441;SDS011;10380;52.102;20.614;2022-10-31T03:34:01;21.83;;;16.70;;
20441;SDS011;10380;52.102;20.614;2022-10-31T03:36:32;21.37;;;16.93;;
20441;SDS011;10380;52.102;20.614;2022-10-31T03:39:01;21.47;;;15.97;;
20441;SDS011;10380;52.102;20.614;2022-10-31T03:41:33;26.50;;;18.27;;
20441;SDS011;10380;52.102;20.614;2022-10-31T03:44:06;26.97;;;16.77;;
20441;SDS011;10380;52.102;20.614;2022-10-31T03:46:38;25.93;;;18.33;;
20441;SDS011;10380;52.102;20.614;2022-10-31T03:49:06;26.57;;;17.23;;
20441;SDS011;10380;52.102;20.614;2022-10-31T03:54:25;26.83;;;17.23;;
20441;SDS011;10380;52.102;20.614;2022-10-31T03:57:00;25.37;;;16.23;;
20441;SDS011;10380;52.102;20.614;2022-10-31T03:59:43;23.73;;;16.77;;
20441;SDS011;10380;52.102;20.614;2022-10-31T04:02:15;25.07;;;16.37;;
20441;SDS011;10380;52.102;20.614;2022-10-31T04:04:44;22.87;;;15.53;;
20441;SDS011;10380;52.102;20.614;2022-10-31T04:07:14;20.43;;;16.37;;
20441;SDS011;10380;52.102;20.614;2022-10-31T04:09:43;22.77;;;16.67;;
20441;SDS011;10380;52.102;20.614;2022-10-31T04:12:13;24.17;;;16.80;;
20441;SDS011;10380;52.102;20.614;2022-10-31T04:14:42;25.23;;;17.00;;
20441;SDS011;10380;52.102;20.614;2022-10-31T04:17:14;38.00;;;20.63;;
20441;SDS011;10380;52.102;20.614;2022-10-31T04:19:44;65.30;;;32.33;;
20441;SDS011;10380;52.102;20.614;2022-10-31T04:22:11;88.73;;;43.80;;
20441;SDS011;10380;52.102;20.614;2022-10-31T04:24:39;84.33;;;40.60;;
20441;SDS011;10380;52.102;20.614;2022-10-31T04:27:07;82.40;;;40.40;;
20441;SDS011;10380;52.102;20.614;2022-10-31T04:29:33;83.70;;;39.23;;
20441;SDS011;10380;52.102;20.614;2022-10-31T04:32:00;91.37;;;42.23;;
20441;SDS011;10380;52.102;20.614;2022-10-31T04:34:28;83.90;;;41.07;;
20441;SDS011;10380;52.102;20.614;2022-10-31T04:36:56;70.87;;;35.73;;
20441;SDS011;10380;52.102;20.614;2022-10-31T04:39:23;63.90;;;32.27;;
20441;SDS011;10380;52.102;20.614;2022-10-31T04:41:52;48.80;;;27.20;;
20441;SDS011;10380;52.102;20.614;2022-10-31T04:44:19;37.10;;;22.43;;
20441;SDS011;10380;52.102;20.614;2022-10-31T04:46:46;38.43;;;22.50;;
20441;SDS011;10380;52.102;20.614;2022-10-31T04:49:12;41.27;;;22.97;;
20441;SDS011;10380;52.102;20.614;2022-10-31T04:51:39;40.47;;;21.53;;
20441;SDS011;10380;52.102;20.614;2022-10-31T04:54:06;25.50;;;17.53;;
20441;SDS011;10380;52.102;20.614;2022-10-31T04:56:33;23.33;;;15.60;;
20441;SDS011;10380;52.102;20.614;2022-10-31T04:59:00;23.50;;;15.67;;
20441;SDS011;10380;52.102;20.614;2022-10-31T05:01:27;32.80;;;18.67;;
20441;SDS011;10380;52.102;20.614;2022-10-31T05:03:54;26.43;;;16.70;;
20441;SDS011;10380;52.102;20.614;2022-10-31T05:06:22;24.13;;;15.17;;
20441;SDS011;10380;52.102;20.614;2022-10-31T05:08:49;22.83;;;17.93;;
20441;SDS011;10380;52.102;20.614;2022-10-31T05:11:16;29.30;;;18.50;;
20441;SDS011;10380;52.102;20.614;2022-10-31T05:13:44;29.10;;;16.63;;
20441;SDS011;10380;52.102;20.614;2022-10-31T05:16:11;23.53;;;15.47;;
20441;SDS011;10380;52.102;20.614;2022-10-31T05:18:38;20.73;;;13.63;;
20441;SDS011;10380;52.102;20.614;2022-10-31T05:21:05;18.87;;;12.97;;
20441;SDS011;10380;52.102;20.614;2022-10-31T05:23:32;17.63;;;13.83;;
20441;SDS011;10380;52.102;20.614;2022-10-31T05:25:58;20.90;;;14.87;;
20441;SDS011;10380;52.102;20.614;2022-10-31T05:28:25;21.33;;;14.07;;
20441;SDS011;10380;52.102;20.614;2022-10-31T05:30:52;24.93;;;14.77;;
20441;SDS011;10380;52.102;20.614;2022-10-31T05:33:19;39.97;;;25.70;;
20441;SDS011;10380;52.102;20.614;2022-10-31T05:35:47;40.03;;;27.40;;
20441;SDS011;10380;52.102;20.614;2022-10-31T05:38:14;35.83;;;24.30;;
20441;SDS011;10380;52.102;20.614;2022-10-31T05:40:41;26.57;;;19.00;;
20441;SDS011;10380;52.102;20.614;2022-10-31T05:43:08;25.70;;;17.47;;
20441;SDS011;10380;52.102;20.614;2022-10-31T05:45:35;23.30;;;16.80;;
20441;SDS011;10380;52.102;20.614;2022-10-31T05:48:02;25.50;;;17.27;;
20441;SDS011;10380;52.102;20.614;2022-10-31T05:50:30;25.07;;;18.07;;
20441;SDS011;10380;52.102;20.614;2022-10-31T05:53:03;30.70;;;20.37;;
20441;SDS011;10380;52.102;20.614;2022-10-31T05:55:31;27.80;;;18.23;;
20441;SDS011;10380;52.102;20.614;2022-10-31T05:57:58;23.73;;;17.23;;
20441;SDS011;10380;52.102;20.614;2022-10-31T06:00:26;24.27;;;15.50;;
20441;SDS011;10380;52.102;20.614;2022-10-31T06:03:03;29.80;;;18.83;;
20441;SDS011;10380;52.102;20.614;2022-10-31T06:05:32;32.97;;;20.40;;
20441;SDS011;10380;52.102;20.614;2022-10-31T06:07:59;54.40;;;31.20;;
20441;SDS011;10380;52.102;20.614;2022-10-31T06:10:27;110.57;;;61.73;;
20441;SDS011;10380;52.102;20.614;2022-10-31T06:12:54;49.43;;;28.47;;
20441;SDS011;10380;52.102;20.614;2022-10-31T06:15:21;31.07;;;20.90;;
20441;SDS011;10380;52.102;20.614;2022-10-31T06:18:00;31.00;;;22.53;;
20441;SDS011;10380;52.102;20.614;2022-10-31T06:20:29;29.43;;;19.07;;
20441;SDS011;10380;52.102;20.614;2022-10-31T06:22:56;37.40;;;20.30;;
20441;SDS011;10380;52.102;20.614;2022-10-31T06:25:24;29.30;;;18.67;;
20441;SDS011;10380;52.102;20.614;2022-10-31T06:27:51;27.53;;;17.73;;
20441;SDS011;10380;52.102;20.614;2022-10-31T06:30:18;31.10;;;18.87;;
20441;SDS011;10380;52.102;20.614;2022-10-31T06:32:45;29.37;;;19.73;;
20441;SDS011;10380;52.102;20.614;2022-10-31T06:35:11;34.83;;;19.73;;
20441;SDS011;10380;52.102;20.614;2022-10-31T06:37:38;30.80;;;19.00;;
20441;SDS011;10380;52.102;20.614;2022-10-31T06:40:05;29.87;;;18.00;;
20441;SDS011;10380;52.102;20.614;2022-10-31T06:42:32;34.07;;;17.60;;
20441;SDS011;10380;52.102;20.614;2022-10-31T06:44:59;32.13;;;18.67;;
20441;SDS011;10380;52.102;20.614;2022-10-31T06:47:26;30.00;;;17.60;;
20441;SDS011;10380;52.102;20.614;2022-10-31T06:49:52;28.03;;;17.80;;
20441;SDS011;10380;52.102;20.614;2022-10-31T06:52:19;36.17;;;21.23;;
20441;SDS011;10380;52.102;20.614;2022-10-31T06:54:47;82.43;;;37.80;;
20441;SDS011;10380;52.102;20.614;2022-10-31T06:57:14;40.87;;;22.40;;
20441;SDS011;10380;52.102;20.614;2022-10-31T06:59:41;29.23;;;18.20;;
20441;SDS011;10380;52.102;20.614;2022-10-31T07:02:09;30.83;;;17.67;;
20441;SDS011;10380;52.102;20.614;2022-10-31T07:04:37;28.93;;;17.67;;
20441;SDS011;10380;52.102;20.614;2022-10-31T07:07:04;28.97;;;16.53;;
20441;SDS011;10380;52.102;20.614;2022-10-31T07:09:31;31.07;;;18.10;;
20441;SDS011;10380;52.102;20.614;2022-10-31T07:12:00;29.20;;;16.67;;
20441;SDS011;10380;52.102;20.614;2022-10-31T07:14:27;32.77;;;19.37;;
20441;SDS011;10380;52.102;20.614;2022-10-31T07:16:54;20.37;;;14.77;;
20441;SDS011;10380;52.102;20.614;2022-10-31T07:19:21;28.17;;;16.37;;
20441;SDS011;10380;52.102;20.614;2022-10-31T07:21:47;21.20;;;14.13;;
20441;SDS011;10380;52.102;20.614;2022-10-31T07:24:14;20.10;;;12.77;;
20441;SDS011;10380;52.102;20.614;2022-10-31T07:26:41;15.30;;;10.20;;
20441;SDS011;10380;52.102;20.614;2022-10-31T07:29:08;18.83;;;11.30;;
20441;SDS011;10380;52.102;20.614;2022-10-31T07:31:35;17.73;;;10.87;;
20441;SDS011;10380;52.102;20.614;2022-10-31T07:34:02;16.63;;;10.27;;
20441;SDS011;10380;52.102;20.614;2022-10-31T07:36:29;18.70;;;11.33;;
20441;SDS011;10380;52.102;20.614;2022-10-31T07:38:56;18.73;;;12.37;;
20441;SDS011;10380;52.102;20.614;2022-10-31T07:41:24;27.83;;;13.17;;
20441;SDS011;10380;52.102;20.614;2022-10-31T07:43:51;21.70;;;11.60;;
20441;SDS011;10380;52.102;20.614;2022-10-31T07:46:23;19.73;;;10.93;;
20441;SDS011;10380;52.102;20.614;2022-10-31T07:48:50;19.20;;;11.50;;
20441;SDS011;10380;52.102;20.614;2022-10-31T07:51:16;17.60;;;11.97;;
20441;SDS011;10380;52.102;20.614;2022-10-31T07:53:43;16.97;;;11.60;;
20441;SDS011;10380;52.102;20.614;2022-10-31T07:56:10;21.33;;;11.97;;
20441;SDS011;10380;52.102;20.614;2022-10-31T07:58:37;21.13;;;13.13;;
20441;SDS011;10380;52.102;20.614;2022-10-31T08:01:05;20.60;;;13.47;;
20441;SDS011;10380;52.102;20.614;2022-10-31T08:03:33;21.90;;;13.37;;
20441;SDS011;10380;52.102;20.614;2022-10-31T08:05:59;19.60;;;13.43;;
20441;SDS011;10380;52.102;20.614;2022-10-31T08:08:26;21.33;;;14.53;;
20441;SDS011;10380;52.102;20.614;2022-10-31T08:10:58;22.40;;;15.00;;
20441;SDS011;10380;52.102;20.614;2022-10-31T08:13:25;18.65;;;13.95;;
20441;SDS011;10380;52.102;20.614;2022-10-31T08:15:52;19.43;;;13.57;;
20441;SDS011;10380;52.102;20.614;2022-10-31T08:18:19;21.63;;;13.93;;
20441;SDS011;10380;52.102;20.614;2022-10-31T08:20:48;20.87;;;14.47;;
20441;SDS011;10380;52.102;20.614;2022-10-31T08:23:15;20.63;;;15.47;;
20441;SDS011;10380;52.102;20.614;2022-10-31T08:25:42;24.83;;;15.73;;
20441;SDS011;10380;52.102;20.614;2022-10-31T08:28:10;19.92;;;14.25;;
20441;SDS011;10380;52.102;20.614;2022-10-31T08:30:38;19.05;;;14.77;;
20441;SDS011;10380;52.102;20.614;2022-10-31T08:33:07;19.33;;;14.20;;
20441;SDS011;10380;52.102;20.614;2022-10-31T08:35:39;19.40;;;13.90;;
20441;SDS011;10380;52.102;20.614;2022-10-31T08:38:07;20.80;;;13.60;;
20441;SDS011;10380;52.102;20.614;2022-10-31T08:40:36;19.77;;;14.47;;
20441;SDS011;10380;52.102;20.614;2022-10-31T08:43:04;21.58;;;14.05;;
20441;SDS011;10380;52.102;20.614;2022-10-31T08:45:34;17.20;;;13.50;;
20441;SDS011;10380;52.102;20.614;2022-10-31T08:48:02;18.02;;;13.77;;
20441;SDS011;10380;52.102;20.614;2022-10-31T08:50:32;19.05;;;13.18;;
20441;SDS011;10380;52.102;20.614;2022-10-31T08:53:09;22.17;;;13.55;;
20441;SDS011;10380;52.102;20.614;2022-10-31T08:55:38;20.77;;;14.40;;
20441;SDS011;10380;52.102;20.614;2022-10-31T08:58:07;17.83;;;13.27;;
20441;SDS011;10380;52.102;20.614;2022-10-31T09:00:37;19.67;;;14.30;;
20441;SDS011;10380;52.102;20.614;2022-10-31T09:03:05;17.77;;;13.93;;
20441;SDS011;10380;52.102;20.614;2022-10-31T09:05:35;16.75;;;13.80;;
20441;SDS011;10380;52.102;20.614;2022-10-31T09:08:03;17.45;;;14.25;;
20441;SDS011;10380;52.102;20.614;2022-10-31T09:10:31;18.23;;;15.10;;
20441;SDS011;10380;52.102;20.614;2022-10-31T09:15:36;24.65;;;18.08;;
20441;SDS011;10380;52.102;20.614;2022-10-31T09:18:05;21.63;;;15.80;;
20441;SDS011;10380;52.102;20.614;2022-10-31T09:20:33;22.75;;;15.98;;
20441;SDS011;10380;52.102;20.614;2022-10-31T09:23:05;21.38;;;15.25;;
20441;SDS011;10380;52.102;20.614;2022-10-31T09:25:51;21.58;;;16.13;;
20441;SDS011;10380;52.102;20.614;2022-10-31T09:28:19;19.70;;;14.40;;
20441;SDS011;10380;52.102;20.614;2022-10-31T09:30:51;20.73;;;15.07;;
20441;SDS011;10380;52.102;20.614;2022-10-31T09:33:19;23.48;;;16.85;;
20441;SDS011;10380;52.102;20.614;2022-10-31T09:35:47;23.88;;;16.98;;
20441;SDS011;10380;52.102;20.614;2022-10-31T09:38:14;25.77;;;17.08;;
20441;SDS011;10380;52.102;20.614;2022-10-31T09:40:49;23.67;;;17.17;;
20441;SDS011;10380;52.102;20.614;2022-10-31T09:51:42;33.97;;;23.13;;
20441;SDS011;10380;52.102;20.614;2022-10-31T09:56:46;39.88;;;24.45;;
20441;SDS011;10380;52.102;20.614;2022-10-31T10:02:24;39.88;;;25.50;;
20441;SDS011;10380;52.102;20.614;2022-10-31T10:05:00;39.92;;;25.23;;
20441;SDS011;10380;52.102;20.614;2022-10-31T10:07:35;40.08;;;26.85;;
20441;SDS011;10380;52.102;20.614;2022-10-31T10:10:12;36.55;;;24.85;;
20441;SDS011;10380;52.102;20.614;2022-10-31T10:15:54;38.63;;;24.70;;
20441;SDS011;10380;52.102;20.614;2022-10-31T10:18:35;36.90;;;24.73;;
20441;SDS011;10380;52.102;20.614;2022-10-31T10:32:09;43.58;;;26.85;;
20441;SDS011;10380;52.102;20.614;2022-10-31T10:34:45;45.53;;;27.63;;
20441;SDS011;10380;52.102;20.614;2022-10-31T10:39:53;42.50;;;27.58;;
20441;SDS011;10380;52.102;20.614;2022-10-31T10:42:44;42.15;;;26.90;;
20441;SDS011;10380;52.102;20.614;2022-10-31T10:45:40;43.75;;;28.00;;
20441;SDS011;10380;52.102;20.614;2022-10-31T11:00:13;43.67;;;29.27;;
20441;SDS011;10380;52.102;20.614;2022-10-31T11:02:45;222.55;;;49.17;;
20441;SDS011;10380;52.102;20.614;2022-10-31T11:05:20;44.33;;;29.35;;
20441;SDS011;10380;52.102;20.614;2022-10-31T11:07:48;44.05;;;28.63;;
20441;SDS011;10380;52.102;20.614;2022-10-31T11:10:15;48.20;;;30.98;;
20441;SDS011;10380;52.102;20.614;2022-10-31T11:12:43;51.65;;;30.17;;
20441;SDS011;10380;52.102;20.614;2022-10-31T11:15:22;43.40;;;30.63;;
20441;SDS011;10380;52.102;20.614;2022-10-31T11:17:52;50.15;;;33.17;;
20441;SDS011;10380;52.102;20.614;2022-10-31T11:23:03;51.47;;;31.27;;
20441;SDS011;10380;52.102;20.614;2022-10-31T11:26:01;51.22;;;29.30;;
20441;SDS011;10380;52.102;20.614;2022-10-31T11:28:30;51.22;;;31.45;;
20441;SDS011;10380;52.102;20.614;2022-10-31T11:31:08;57.08;;;31.45;;
20441;SDS011;10380;52.102;20.614;2022-10-31T11:33:40;39.92;;;28.27;;
20441;SDS011;10380;52.102;20.614;2022-10-31T11:36:22;43.30;;;26.70;;
20441;SDS011;10380;52.102;20.614;2022-10-31T11:38:54;41.25;;;25.05;;
20441;SDS011;10380;52.102;20.614;2022-10-31T11:41:25;38.15;;;25.50;;
20441;SDS011;10380;52.102;20.614;2022-10-31T11:44:04;46.28;;;26.52;;
20441;SDS011;10380;52.102;20.614;2022-10-31T11:46:39;37.50;;;24.30;;
20441;SDS011;10380;52.102;20.614;2022-10-31T11:52:16;41.88;;;25.48;;
20441;SDS011;10380;52.102;20.614;2022-10-31T11:55:01;36.65;;;25.60;;
20441;SDS011;10380;52.102;20.614;2022-10-31T11:57:44;35.42;;;23.95;;
20441;SDS011;10380;52.102;20.614;2022-10-31T12:00:20;39.10;;;24.70;;
20441;SDS011;10380;52.102;20.614;2022-10-31T12:06:13;36.88;;;25.80;;
20441;SDS011;10380;52.102;20.614;2022-10-31T12:08:49;42.97;;;28.20;;
20441;SDS011;10380;52.102;20.614;2022-10-31T12:11:27;42.22;;;28.05;;
20441;SDS011;10380;52.102;20.614;2022-10-31T12:45:00;44.05;;;29.73;;
20441;SDS011;10380;52.102;20.614;2022-10-31T12:58:39;44.85;;;29.50;;
20441;SDS011;10380;52.102;20.614;2022-10-31T13:01:27;47.10;;;29.50;;
20441;SDS011;10380;52.102;20.614;2022-10-31T13:04:03;49.65;;;31.30;;
20441;SDS011;10380;52.102;20.614;2022-10-31T13:06:42;44.70;;;29.63;;
20441;SDS011;10380;52.102;20.614;2022-10-31T13:09:30;51.38;;;31.05;;
20441;SDS011;10380;52.102;20.614;2022-10-31T13:12:02;47.95;;;30.70;;
20441;SDS011;10380;52.102;20.614;2022-10-31T13:17:15;49.22;;;31.85;;
20441;SDS011;10380;52.102;20.614;2022-10-31T13:19:51;48.65;;;32.00;;
20441;SDS011;10380;52.102;20.614;2022-10-31T13:22:29;51.53;;;30.73;;
20441;SDS011;10380;52.102;20.614;2022-10-31T13:27:30;46.40;;;30.38;;
20441;SDS011;10380;52.102;20.614;2022-10-31T13:30:17;57.15;;;32.33;;
20441;SDS011;10380;52.102;20.614;2022-10-31T13:38:22;51.95;;;31.67;;
20441;SDS011;10380;52.102;20.614;2022-10-31T13:46:23;54.88;;;33.97;;
20441;SDS011;10380;52.102;20.614;2022-10-31T13:48:59;56.28;;;32.70;;
20441;SDS011;10380;52.102;20.614;2022-10-31T13:51:27;57.75;;;32.75;;
20441;SDS011;10380;52.102;20.614;2022-10-31T13:54:18;59.72;;;31.77;;
20441;SDS011;10380;52.102;20.614;2022-10-31T13:56:59;55.72;;;31.45;;
20441;SDS011;10380;52.102;20.614;2022-10-31T13:59:27;56.92;;;31.73;;
20441;SDS011;10380;52.102;20.614;2022-10-31T14:01:56;54.30;;;32.15;;
20441;SDS011;10380;52.102;20.614;2022-10-31T14:04:24;57.45;;;33.05;;
20441;SDS011;10380;52.102;20.614;2022-10-31T14:07:06;55.08;;;33.28;;
20441;SDS011;10380;52.102;20.614;2022-10-31T14:09:39;53.03;;;31.75;;
20441;SDS011;10380;52.102;20.614;2022-10-31T14:15:13;56.63;;;33.08;;
20441;SDS011;10380;52.102;20.614;2022-10-31T14:20:34;54.28;;;30.52;;
20441;SDS011;10380;52.102;20.614;2022-10-31T14:28:48;56.85;;;32.28;;
20441;SDS011;10380;52.102;20.614;2022-10-31T14:40:10;56.58;;;30.50;;
20441;SDS011;10380;52.102;20.614;2022-10-31T14:45:45;57.38;;;32.08;;
20441;SDS011;10380;52.102;20.614;2022-10-31T14:51:10;63.38;;;32.55;;
20441;SDS011;10380;52.102;20.614;2022-10-31T14:56:22;63.75;;;32.38;;
20441;SDS011;10380;52.102;20.614;2022-10-31T14:58:52;69.45;;;34.92;;
20441;SDS011;10380;52.102;20.614;2022-10-31T15:01:24;69.03;;;34.40;;
20441;SDS011;10380;52.102;20.614;2022-10-31T15:07:22;76.15;;;35.95;;
20441;SDS011;10380;52.102;20.614;2022-10-31T15:10:00;70.68;;;37.38;;
20441;SDS011;10380;52.102;20.614;2022-10-31T15:12:33;65.13;;;33.95;;
20441;SDS011;10380;52.102;20.614;2022-10-31T15:15:13;70.25;;;34.63;;
20441;SDS011;10380;52.102;20.614;2022-10-31T15:18:00;63.08;;;31.13;;
20441;SDS011;10380;52.102;20.614;2022-10-31T15:20:33;64.53;;;32.43;;
20441;SDS011;10380;52.102;20.614;2022-10-31T15:23:20;61.85;;;31.85;;
20441;SDS011;10380;52.102;20.614;2022-10-31T15:26:01;63.60;;;30.10;;
20441;SDS011;10380;52.102;20.614;2022-10-31T15:28:31;67.47;;;31.50;;
20441;SDS011;10380;52.102;20.614;2022-10-31T15:30:59;71.20;;;32.63;;
20441;SDS011;10380;52.102;20.614;2022-10-31T15:33:31;64.37;;;31.40;;
20441;SDS011;10380;52.102;20.614;2022-10-31T15:36:23;60.87;;;30.30;;
20441;SDS011;10380;52.102;20.614;2022-10-31T15:38:56;67.22;;;30.70;;
20441;SDS011;10380;52.102;20.614;2022-10-31T15:42:13;65.07;;;30.02;;
20441;SDS011;10380;52.102;20.614;2022-10-31T15:44:30;54.57;;;25.10;;
20441;SDS011;10380;52.102;20.614;2022-10-31T15:47:02;54.23;;;26.23;;
20441;SDS011;10380;52.102;20.614;2022-10-31T15:52:02;60.27;;;27.97;;
20441;SDS011;10380;52.102;20.614;2022-10-31T15:54:32;60.17;;;29.40;;
20441;SDS011;10380;52.102;20.614;2022-10-31T15:56:59;60.33;;;29.70;;
20441;SDS011;10380;52.102;20.614;2022-10-31T15:59:26;56.03;;;27.57;;
20441;SDS011;10380;52.102;20.614;2022-10-31T16:01:58;60.17;;;28.00;;
20441;SDS011;10380;52.102;20.614;2022-10-31T16:04:28;62.10;;;31.10;;
20441;SDS011;10380;52.102;20.614;2022-10-31T16:07:00;61.75;;;29.98;;
20441;SDS011;10380;52.102;20.614;2022-10-31T16:09:27;59.90;;;30.83;;
20441;SDS011;10380;52.102;20.614;2022-10-31T16:11:55;56.97;;;26.43;;
20441;SDS011;10380;52.102;20.614;2022-10-31T16:14:25;64.13;;;29.57;;
20441;SDS011;10380;52.102;20.614;2022-10-31T16:16:56;67.23;;;31.37;;
20441;SDS011;10380;52.102;20.614;2022-10-31T16:19:32;78.23;;;33.27;;
20441;SDS011;10380;52.102;20.614;2022-10-31T16:22:06;73.30;;;31.08;;
20441;SDS011;10380;52.102;20.614;2022-10-31T16:27:22;61.03;;;28.57;;
20441;SDS011;10380;52.102;20.614;2022-10-31T16:29:55;57.60;;;27.07;;
20441;SDS011;10380;52.102;20.614;2022-10-31T16:32:34;57.97;;;28.03;;
20441;SDS011;10380;52.102;20.614;2022-10-31T16:37:39;68.13;;;33.87;;
20441;SDS011;10380;52.102;20.614;2022-10-31T16:40:08;64.50;;;31.97;;
20441;SDS011;10380;52.102;20.614;2022-10-31T16:42:37;57.85;;;29.55;;
20441;SDS011;10380;52.102;20.614;2022-10-31T16:45:07;56.53;;;28.90;;
20441;SDS011;10380;52.102;20.614;2022-10-31T16:47:41;54.83;;;25.80;;
20441;SDS011;10380;52.102;20.614;2022-10-31T16:50:12;52.83;;;27.77;;
20441;SDS011;10380;52.102;20.614;2022-10-31T16:52:41;48.08;;;25.63;;
20441;SDS011;10380;52.102;20.614;2022-10-31T16:55:28;51.10;;;26.38;;
20441;SDS011;10380;52.102;20.614;2022-10-31T16:57:55;49.23;;;25.53;;
20441;SDS011;10380;52.102;20.614;2022-10-31T17:00:24;50.80;;;26.73;;
20441;SDS011;10380;52.102;20.614;2022-10-31T17:02:54;49.97;;;27.38;;
20441;SDS011;10380;52.102;20.614;2022-10-31T17:05:25;51.17;;;25.80;;
20441;SDS011;10380;52.102;20.614;2022-10-31T17:07:56;52.37;;;26.83;;
20441;SDS011;10380;52.102;20.614;2022-10-31T17:10:23;55.80;;;27.27;;
20441;SDS011;10380;52.102;20.614;2022-10-31T17:12:50;47.40;;;26.00;;
20441;SDS011;10380;52.102;20.614;2022-10-31T17:15:18;47.50;;;22.67;;
20441;SDS011;10380;52.102;20.614;2022-10-31T17:17:49;47.37;;;23.47;;
20441;SDS011;10380;52.102;20.614;2022-10-31T17:20:20;42.72;;;22.27;;
20441;SDS011;10380;52.102;20.614;2022-10-31T17:22:53;50.90;;;24.90;;
20441;SDS011;10380;52.102;20.614;2022-10-31T17:25:22;42.13;;;22.87;;
20441;SDS011;10380;52.102;20.614;2022-10-31T17:27:51;40.90;;;21.17;;
20441;SDS011;10380;52.102;20.614;2022-10-31T17:30:19;41.33;;;24.00;;
20441;SDS011;10380;52.102;20.614;2022-10-31T17:32:47;54.73;;;24.30;;
20441;SDS011;10380;52.102;20.614;2022-10-31T17:35:15;50.13;;;24.30;;
20441;SDS011;10380;52.102;20.614;2022-10-31T17:37:43;49.20;;;24.83;;